Maples, Missouri
Current Conditions -  °F | °C
As of 11:58 AM on Saturday 20 Dec 2014 (Local Time) from KTBN Reporting Station
Overcast Overcast  
Wind Chill: 41°   Ceiling: 1300
Heat Index: 41°   Visibility: 10mi
Dew Point: 37°   Wind: 3mph
Humidity: 87%   Direction: 210°SSW
Pressure: 30.19"   Gusts: NA
Location:  37.5023°N, 91.4546°W
Report Text: KTBN 201758Z AUTO 21003KT 10SM OVC013 05/03 A3019 RMK AO2 SLP233 T00490029 10049 20015 58011 $
Loading
Personal Weather Stations






























Interactive Weather Map New forecast layout! Learn more

10-Day Weather Forecast

Advertisements
Track Severe Weather on mobile